Time;durP1;ratioP1;P1;durP2;ratioP2;P2;SDS_P1;SDS_P2;PMS_P1;PMS_P2;Temp;Humidity;BMP_temperature;BMP_pressure;BME280_temperature;BME280_humidity;BME280_pressure;Samples;Min_cycle;Max_cycle;Signal;HPM_P1;HPM_P2
2023/08/03 00:00:14;;;;;;;4.30;2.28;;;16.20;99.90;;;;;;5019363;28;20037;-57
2023/08/03 00:02:40;;;;;;;4.55;2.35;;;16.20;99.90;;;;;;5018419;28;20037;-57
2023/08/03 00:05:06;;;;;;;5.40;2.28;;;16.20;99.90;;;;;;5019994;28;20430;-59
2023/08/03 00:07:32;;;;;;;16.83;3.10;;;16.10;99.90;;;;;;5014950;28;20109;-58
2023/08/03 00:09:58;;;;;;;11.07;3.45;;;16.10;99.90;;;;;;5015364;28;20482;-59
2023/08/03 00:12:24;;;;;;;3.33;2.45;;;16.10;99.90;;;;;;5015261;28;20032;-58
2023/08/03 00:14:50;;;;;;;12.23;2.92;;;16.10;99.90;;;;;;5015816;28;20022;-59
2023/08/03 00:17:16;;;;;;;6.60;2.47;;;16.10;99.90;;;;;;5018609;28;20100;-57
2023/08/03 00:19:41;;;;;;;9.52;2.38;;;16.20;99.90;;;;;;5015287;28;20044;-57
2023/08/03 00:22:08;;;;;;;7.25;2.40;;;16.20;99.90;;;;;;5013935;28;20033;-56
2023/08/03 00:24:34;;;;;;;9.55;2.47;;;16.20;99.90;;;;;;5015061;28;20324;-58
2023/08/03 00:26:59;;;;;;;9.52;2.35;;;16.20;99.90;;;;;;5020909;28;20104;-59
2023/08/03 00:29:25;;;;;;;10.23;2.42;;;16.20;99.90;;;;;;5023380;28;20018;-57
2023/08/03 00:31:50;;;;;;;9.27;2.17;;;16.20;99.90;;;;;;5017094;28;20122;-58
2023/08/03 00:34:16;;;;;;;7.85;2.60;;;16.10;99.90;;;;;;5017045;28;20049;-57
2023/08/03 00:36:41;;;;;;;7.22;1.98;;;16.10;99.90;;;;;;5019285;28;20611;-57
2023/08/03 00:39:07;;;;;;;4.80;1.95;;;16.10;99.90;;;;;;5020440;28;20030;-57
2023/08/03 00:41:33;;;;;;;9.90;2.53;;;16.10;99.90;;;;;;5020864;28;20040;-59
2023/08/03 00:43:58;;;;;;;6.90;1.90;;;16.10;99.90;;;;;;5020031;28;20030;-60
2023/08/03 00:46:24;;;;;;;6.55;2.15;;;16.00;99.90;;;;;;5017786;28;20060;-57
2023/08/03 00:48:50;;;;;;;13.75;2.90;;;16.00;99.90;;;;;;5019380;28;20033;-57
2023/08/03 00:51:15;;;;;;;6.30;1.42;;;16.00;99.90;;;;;;5018398;28;20386;-57
2023/08/03 00:53:45;;;;;;;7.78;1.80;;;15.90;99.90;;;;;;5017948;28;20481;-58
2023/08/03 00:56:14;;;;;;;7.18;1.88;;;15.90;99.90;;;;;;5012676;28;20474;-57
2023/08/03 00:58:40;;;;;;;5.70;1.92;;;15.90;99.90;;;;;;5019265;28;20109;-57
2023/08/03 01:01:06;;;;;;;10.00;3.10;;;15.90;99.90;;;;;;5020185;28;20636;-58
2023/08/03 01:03:32;;;;;;;5.88;1.48;;;15.90;99.90;;;;;;5019945;28;20032;-57
2023/08/03 01:05:57;;;;;;;7.10;1.60;;;15.90;99.90;;;;;;5020255;28;20033;-58
2023/08/03 01:08:24;;;;;;;9.32;2.45;;;15.90;99.90;;;;;;5026139;28;20021;-57
2023/08/03 01:10:50;;;;;;;8.57;1.67;;;15.90;99.90;;;;;;5020430;28;20041;-58
2023/08/03 01:13:16;;;;;;;7.40;1.88;;;15.90;99.90;;;;;;5020794;28;20451;-57
2023/08/03 01:15:41;;;;;;;10.38;2.55;;;15.90;99.90;;;;;;5019491;28;20061;-58
2023/08/03 01:18:07;;;;;;;9.93;2.15;;;15.90;99.90;;;;;;5019348;28;20052;-59
2023/08/03 01:20:36;;;;;;;4.68;1.50;;;15.90;99.90;;;;;;5019886;28;20514;-58
2023/08/03 01:23:04;;;;;;;10.68;2.30;;;15.90;99.90;;;;;;5020552;28;20394;-59
2023/08/03 01:25:32;;;;;;;5.97;1.63;;;15.90;99.90;;;;;;5018062;28;20029;-58
2023/08/03 01:27:57;;;;;;;3.83;1.30;;;15.90;99.90;;;;;;5017776;28;20030;-58
2023/08/03 01:30:23;;;;;;;6.97;1.65;;;15.90;99.90;;;;;;5019409;28;20030;-58
2023/08/03 01:32:50;;;;;;;9.55;1.60;;;15.90;99.90;;;;;;5018063;28;20017;-59
2023/08/03 01:35:16;;;;;;;10.68;1.73;;;15.90;99.90;;;;;;5019546;28;20025;-58
2023/08/03 01:37:42;;;;;;;10.10;2.30;;;15.80;99.90;;;;;;5015269;28;20036;-58
2023/08/03 01:40:10;;;;;;;11.25;2.08;;;15.80;99.90;;;;;;5018260;28;20037;-58
2023/08/03 01:42:36;;;;;;;8.20;1.65;;;15.70;99.90;;;;;;5019552;28;20040;-59
2023/08/03 01:45:02;;;;;;;6.20;1.60;;;15.70;99.90;;;;;;5019712;28;20565;-58
2023/08/03 01:47:28;;;;;;;9.40;1.90;;;15.70;99.90;;;;;;5018289;28;20117;-59
2023/08/03 01:49:53;;;;;;;9.77;2.08;;;15.70;99.90;;;;;;5019626;28;20030;-58
2023/08/03 01:52:19;;;;;;;7.47;1.80;;;15.70;99.90;;;;;;5015901;28;20231;-57
2023/08/03 01:54:44;;;;;;;6.72;2.42;;;15.70;99.90;;;;;;5014994;28;20053;-57
2023/08/03 01:57:10;;;;;;;4.15;1.60;;;15.70;99.90;;;;;;5016651;28;20398;-58
2023/08/03 01:59:35;;;;;;;5.47;1.30;;;15.70;99.90;;;;;;5024856;28;20065;-59
2023/08/03 02:02:01;;;;;;;6.25;1.33;;;15.70;99.90;;;;;;5016152;28;20056;-59
2023/08/03 02:04:27;;;;;;;5.50;1.55;;;15.80;99.90;;;;;;5017866;28;20034;-58
2023/08/03 02:06:56;;;;;;;12.50;1.50;;;15.90;99.90;;;;;;5020606;28;20470;-58
2023/08/03 02:09:22;;;;;;;7.38;1.55;;;15.90;99.90;;;;;;5013642;28;20111;-59
2023/08/03 02:11:48;;;;;;;9.68;1.58;;;16.00;99.90;;;;;;5016490;28;20506;-60
2023/08/03 02:14:13;;;;;;;6.57;1.48;;;15.90;99.90;;;;;;5018303;28;20117;-56
2023/08/03 02:16:39;;;;;;;8.18;1.80;;;15.90;99.90;;;;;;5017721;28;20044;-59
2023/08/03 02:19:05;;;;;;;4.75;1.48;;;16.00;99.90;;;;;;5019146;28;20046;-58
2023/08/03 02:21:30;;;;;;;7.95;1.85;;;16.00;99.90;;;;;;5020966;28;20060;-58
2023/08/03 02:23:56;;;;;;;6.88;1.52;;;16.00;99.90;;;;;;5019582;28;20038;-59
2023/08/03 02:26:21;;;;;;;5.63;1.65;;;16.00;99.90;;;;;;5014516;28;20111;-57
2023/08/03 02:28:47;;;;;;;4.10;1.25;;;16.00;99.90;;;;;;5015675;28;20137;-58
2023/08/03 02:31:12;;;;;;;11.05;2.00;;;16.10;99.90;;;;;;5017501;28;20022;-59
2023/08/03 02:33:38;;;;;;;9.35;1.52;;;16.10;99.90;;;;;;5017187;28;20525;-59
2023/08/03 02:36:04;;;;;;;5.10;1.15;;;16.20;99.90;;;;;;5014582;28;20022;-57
2023/08/03 02:38:29;;;;;;;18.08;2.55;;;16.20;99.90;;;;;;5019295;28;20250;-58
2023/08/03 02:40:57;;;;;;;4.32;1.20;;;16.20;99.90;;;;;;5016014;28;20118;-58
2023/08/03 02:43:23;;;;;;;6.20;1.48;;;16.20;99.90;;;;;;5021533;28;20060;-57
2023/08/03 02:45:49;;;;;;;5.57;1.20;;;16.10;99.90;;;;;;5016335;28;20040;-59
2023/08/03 02:48:15;;;;;;;10.73;1.70;;;16.10;99.90;;;;;;5017347;28;20475;-59
2023/08/03 02:50:40;;;;;;;5.68;1.35;;;16.10;99.90;;;;;;5015673;28;20037;-57
2023/08/03 02:53:06;;;;;;;9.32;1.83;;;16.10;99.90;;;;;;5014604;28;20013;-58
2023/08/03 02:55:31;;;;;;;6.63;1.42;;;16.10;99.90;;;;;;5017088;28;20528;-58
2023/08/03 02:57:57;;;;;;;9.90;1.45;;;16.00;99.90;;;;;;5018073;28;20113;-59
2023/08/03 03:00:23;;;;;;;4.38;1.45;;;16.00;99.90;;;;;;5015601;28;20026;-56
2023/08/03 03:02:48;;;;;;;3.67;1.30;;;16.00;99.90;;;;;;5016748;28;20040;-58
2023/08/03 03:05:14;;;;;;;8.75;2.13;;;16.00;99.90;;;;;;5017504;28;20032;-57
2023/08/03 03:07:40;;;;;;;6.07;1.52;;;16.00;99.90;;;;;;5012114;28;20040;-56
2023/08/03 03:10:06;;;;;;;7.50;1.48;;;16.00;99.90;;;;;;5015266;28;20038;-57
2023/08/03 03:12:31;;;;;;;12.98;1.40;;;15.90;99.90;;;;;;5016735;28;20092;-59
2023/08/03 03:14:57;;;;;;;4.38;1.60;;;15.90;99.90;;;;;;5016777;28;20030;-58
2023/08/03 03:17:22;;;;;;;9.27;1.63;;;15.90;99.90;;;;;;5016801;28;20342;-57
2023/08/03 03:19:48;;;;;;;9.93;1.45;;;15.90;99.90;;;;;;5015077;28;20052;-58
2023/08/03 03:22:13;;;;;;;7.55;1.40;;;15.90;99.90;;;;;;5015826;28;20616;-57
2023/08/03 03:24:39;;;;;;;6.40;1.48;;;15.90;99.90;;;;;;5018087;28;20038;-57
2023/08/03 03:27:05;;;;;;;4.80;1.20;;;15.90;99.90;;;;;;5015670;28;20120;-58
2023/08/03 03:29:31;;;;;;;7.38;2.05;;;15.90;99.90;;;;;;5024128;28;20034;-57
2023/08/03 03:31:56;;;;;;;4.80;1.23;;;15.90;99.90;;;;;;5016354;28;20598;-59
2023/08/03 03:34:22;;;;;;;14.13;1.88;;;16.00;99.90;;;;;;5016625;28;20026;-57
2023/08/03 03:36:48;;;;;;;3.95;1.33;;;16.00;99.90;;;;;;5018276;28;20446;-59
2023/08/03 03:39:13;;;;;;;5.18;1.63;;;16.00;99.90;;;;;;5019247;28;20021;-59
2023/08/03 03:41:39;;;;;;;9.15;1.13;;;16.00;99.90;;;;;;5016881;28;20104;-59
2023/08/03 03:44:05;;;;;;;4.85;0.88;;;16.00;99.90;;;;;;5022322;28;20030;-60
2023/08/03 03:46:30;;;;;;;6.10;1.30;;;16.00;99.90;;;;;;5018882;28;20417;-59
2023/08/03 03:48:56;;;;;;;4.50;1.10;;;16.10;99.90;;;;;;5016945;28;20096;-60
2023/08/03 03:51:22;;;;;;;16.75;2.75;;;16.10;99.90;;;;;;5015943;28;20058;-59
2023/08/03 03:53:47;;;;;;;7.22;1.58;;;16.10;99.90;;;;;;5016502;28;20033;-59
2023/08/03 03:56:13;;;;;;;5.38;1.15;;;16.10;99.90;;;;;;5014358;28;20028;-58
2023/08/03 03:58:39;;;;;;;7.13;1.50;;;16.00;99.90;;;;;;5012883;28;20498;-59
2023/08/03 04:01:04;;;;;;;2.85;1.10;;;16.00;99.90;;;;;;5016458;28;20033;-60
2023/08/03 04:03:30;;;;;;;3.10;0.90;;;16.00;99.90;;;;;;5018896;28;20041;-59
2023/08/03 04:05:56;;;;;;;4.85;0.75;;;16.10;99.90;;;;;;5015870;28;20510;-59
2023/08/03 04:08:21;;;;;;;3.58;1.10;;;16.00;99.90;;;;;;5014967;28;20037;-60
2023/08/03 04:10:47;;;;;;;5.75;1.48;;;16.00;99.90;;;;;;5016689;28;20117;-59
2023/08/03 04:13:13;;;;;;;7.72;1.30;;;15.90;99.90;;;;;;5013794;28;20025;-58
2023/08/03 04:15:38;;;;;;;3.53;0.90;;;15.80;99.90;;;;;;5014389;28;20065;-59
2023/08/03 04:18:04;;;;;;;9.20;1.58;;;15.70;99.90;;;;;;5010779;28;20056;-60
2023/08/03 04:20:29;;;;;;;7.80;1.00;;;15.70;99.90;;;;;;5015178;28;20034;-59
2023/08/03 04:22:56;;;;;;;4.35;1.20;;;15.60;99.90;;;;;;5015882;28;20041;-59
2023/08/03 04:25:22;;;;;;;3.90;1.15;;;15.60;99.90;;;;;;5016307;28;20497;-59
2023/08/03 04:27:47;;;;;;;5.28;1.00;;;15.60;99.90;;;;;;5013186;28;20084;-60
2023/08/03 04:30:13;;;;;;;8.75;1.95;;;15.60;99.90;;;;;;5012976;28;20061;-60
2023/08/03 04:32:40;;;;;;;6.38;1.30;;;15.70;99.90;;;;;;5016813;28;20092;-59
2023/08/03 04:35:06;;;;;;;4.50;1.30;;;15.60;99.90;;;;;;5033742;28;20036;-59
2023/08/03 04:37:31;;;;;;;6.75;1.65;;;15.70;99.90;;;;;;5014437;28;20029;-59
2023/08/03 04:39:57;;;;;;;9.43;1.20;;;15.80;99.90;;;;;;5017369;28;20390;-59
2023/08/03 04:42:23;;;;;;;13.73;1.95;;;15.80;99.90;;;;;;5015574;28;20419;-60
2023/08/03 04:44:49;;;;;;;4.28;1.27;;;15.70;99.90;;;;;;5015227;28;20117;-59
2023/08/03 04:47:15;;;;;;;4.15;1.10;;;15.80;99.90;;;;;;5012639;28;20029;-60
2023/08/03 04:49:41;;;;;;;3.15;0.93;;;15.80;99.90;;;;;;5015541;28;20036;-62
2023/08/03 04:52:07;;;;;;;7.65;1.73;;;15.80;99.90;;;;;;5014739;28;20041;-62
2023/08/03 04:54:33;;;;;;;6.72;1.67;;;15.90;99.90;;;;;;5018625;28;20112;-61
2023/08/03 04:56:58;;;;;;;2.22;1.00;;;15.90;99.90;;;;;;5014319;28;20036;-62
2023/08/03 04:59:24;;;;;;;4.07;1.42;;;16.00;99.90;;;;;;5014791;28;20064;-61
2023/08/03 05:01:50;;;;;;;6.57;1.30;;;16.00;99.90;;;;;;5014956;28;20275;-62
2023/08/03 05:04:16;;;;;;;4.90;1.13;;;16.00;99.90;;;;;;5012566;28;20025;-61
2023/08/03 05:06:42;;;;;;;4.70;0.93;;;16.10;99.90;;;;;;5014909;28;20374;-61
2023/08/03 05:09:07;;;;;;;4.38;1.20;;;16.20;99.90;;;;;;5016184;28;20029;-62
2023/08/03 05:11:33;;;;;;;6.53;1.42;;;16.20;99.90;;;;;;5014902;28;20029;-62
2023/08/03 05:13:58;;;;;;;5.35;1.00;;;16.30;99.90;;;;;;5021540;28;20188;-61
2023/08/03 05:16:24;;;;;;;6.22;1.25;;;16.30;99.90;;;;;;5026617;28;20045;-58
2023/08/03 05:18:53;;;;;;;4.60;1.27;;;16.40;99.90;;;;;;5020075;28;20172;-60
2023/08/03 05:21:19;;;;;;;4.68;0.95;;;16.40;99.90;;;;;;5018983;28;20053;-59
2023/08/03 05:23:45;;;;;;;4.60;0.85;;;16.50;99.90;;;;;;5014355;28;20466;-61
2023/08/03 05:26:11;;;;;;;4.45;0.80;;;16.60;99.90;;;;;;5020608;28;20017;-59
2023/08/03 05:28:37;;;;;;;6.05;0.88;;;16.60;99.90;;;;;;5019796;28;20864;-58
2023/08/03 05:31:02;;;;;;;5.95;0.90;;;16.60;99.90;;;;;;5018992;28;20033;-58
2023/08/03 05:33:28;;;;;;;5.13;1.17;;;16.70;99.90;;;;;;5019056;28;20559;-60
2023/08/03 05:35:54;;;;;;;3.33;0.93;;;16.70;99.90;;;;;;5016514;28;20025;-57
2023/08/03 05:38:19;;;;;;;5.57;1.10;;;16.60;99.90;;;;;;5018519;28;20017;-60
2023/08/03 05:40:45;;;;;;;11.15;1.70;;;16.70;99.90;;;;;;5018872;28;20033;-58
2023/08/03 05:43:13;;;;;;;6.00;1.63;;;16.60;99.90;;;;;;5017765;28;20034;-56
2023/08/03 05:45:43;;;;;;;6.25;0.80;;;16.60;99.90;;;;;;5017014;28;20039;-58
2023/08/03 05:48:20;;;;;;;4.18;1.30;;;16.60;99.90;;;;;;5016288;28;20026;-58
2023/08/03 05:50:51;;;;;;;3.83;0.80;;;16.60;99.90;;;;;;5017593;28;20021;-58
2023/08/03 05:53:17;;;;;;;5.70;1.00;;;16.60;99.90;;;;;;5017617;28;20065;-59
2023/08/03 05:55:44;;;;;;;1.45;0.75;;;16.60;99.90;;;;;;5015206;28;20041;-59
2023/08/03 05:58:12;;;;;;;1.20;0.57;;;16.70;99.90;;;;;;5018108;28;20026;-60
2023/08/03 06:00:40;;;;;;;3.45;0.77;;;16.70;99.90;;;;;;5014925;28;20030;-59
2023/08/03 06:03:14;;;;;;;4.75;0.90;;;16.60;99.90;;;;;;5017726;28;20033;-58
2023/08/03 06:05:49;;;;;;;5.65;1.45;;;16.70;99.90;;;;;;5017417;28;20117;-57
2023/08/03 06:08:15;;;;;;;2.20;0.68;;;16.70;99.90;;;;;;5016197;28;20030;-59
2023/08/03 06:10:42;;;;;;;2.40;0.80;;;16.70;99.90;;;;;;5016665;28;20026;-58
2023/08/03 06:13:16;;;;;;;3.20;0.70;;;16.70;99.90;;;;;;5017599;28;20034;-58
2023/08/03 06:15:43;;;;;;;3.55;0.50;;;16.80;99.90;;;;;;5015997;28;20544;-59
2023/08/03 06:18:14;;;;;;;3.13;0.70;;;16.80;99.90;;;;;;5020787;28;20034;-57
2023/08/03 06:20:52;;;;;;;1.95;0.50;;;16.80;99.90;;;;;;5014408;28;20122;-57
2023/08/03 06:23:20;;;;;;;2.42;0.40;;;16.80;99.90;;;;;;5017554;28;20489;-58
2023/08/03 06:25:50;;;;;;;3.22;0.80;;;16.80;99.90;;;;;;5017814;28;20033;-59
2023/08/03 06:28:18;;;;;;;3.47;0.90;;;16.80;99.90;;;;;;5019281;28;20035;-59
2023/08/03 06:30:45;;;;;;;7.13;0.60;;;16.90;99.90;;;;;;5021459;28;20464;-60
2023/08/03 06:33:17;;;;;;;4.03;0.95;;;16.90;99.90;;;;;;5018687;28;20022;-59
2023/08/03 06:35:44;;;;;;;2.67;0.85;;;16.90;99.90;;;;;;5019998;28;20523;-60
2023/08/03 06:38:14;;;;;;;2.28;0.85;;;17.00;99.90;;;;;;5019084;28;20040;-57
2023/08/03 06:40:41;;;;;;;3.30;0.65;;;17.10;99.90;;;;;;5016473;28;20038;-56
2023/08/03 06:43:10;;;;;;;1.15;0.35;;;17.10;99.90;;;;;;5020177;28;20026;-58
2023/08/03 06:45:36;;;;;;;4.53;1.52;;;17.10;99.90;;;;;;5019843;28;20124;-56
2023/08/03 06:48:03;;;;;;;1.73;0.88;;;17.20;99.90;;;;;;5015247;28;20104;-57
2023/08/03 06:50:30;;;;;;;3.38;0.50;;;17.20;99.90;;;;;;5017598;28;20108;-58
2023/08/03 06:52:56;;;;;;;3.80;0.70;;;17.20;99.90;;;;;;5017417;28;20120;-58
2023/08/03 06:55:22;;;;;;;3.88;0.70;;;17.30;99.90;;;;;;5017402;28;20025;-59
2023/08/03 06:57:48;;;;;;;2.65;0.40;;;17.30;99.90;;;;;;5016032;28;20661;-57
2023/08/03 07:00:14;;;;;;;2.95;0.68;;;17.30;99.90;;;;;;5017201;28;20030;-59
2023/08/03 07:02:41;;;;;;;1.25;0.50;;;17.30;99.90;;;;;;5017587;28;20060;-58
2023/08/03 07:05:07;;;;;;;1.23;0.43;;;17.30;99.90;;;;;;5018183;28;20536;-59
2023/08/03 07:07:32;;;;;;;4.00;0.77;;;17.30;99.90;;;;;;5018301;28;20026;-59
2023/08/03 07:10:01;;;;;;;4.00;0.70;;;17.30;99.90;;;;;;5017487;28;20025;-59
2023/08/03 07:12:27;;;;;;;4.88;0.73;;;17.30;99.90;;;;;;5019290;28;20052;-58
2023/08/03 07:14:53;;;;;;;5.60;0.50;;;17.40;99.90;;;;;;5018510;28;20072;-57
2023/08/03 07:17:18;;;;;;;1.23;0.50;;;17.50;99.90;;;;;;5017919;28;20025;-58
2023/08/03 07:19:44;;;;;;;1.90;1.00;;;17.50;99.90;;;;;;5017627;28;20160;-57
2023/08/03 07:22:10;;;;;;;2.85;0.50;;;17.60;99.90;;;;;;5018328;28;20040;-58
2023/08/03 07:24:36;;;;;;;3.15;1.50;;;17.60;99.90;;;;;;5014783;28;20057;-58
2023/08/03 07:27:02;;;;;;;3.10;0.50;;;17.60;99.90;;;;;;5018393;28;20076;-60
2023/08/03 07:29:29;;;;;;;2.60;0.50;;;17.70;99.90;;;;;;5017944;28;20040;-57
2023/08/03 07:31:55;;;;;;;1.55;0.40;;;17.80;99.90;;;;;;5016545;28;20027;-58
2023/08/03 07:34:20;;;;;;;2.90;0.50;;;17.80;99.90;;;;;;5011915;28;20541;-59
2023/08/03 07:36:46;;;;;;;1.45;0.57;;;17.80;99.90;;;;;;5015789;28;20037;-59
2023/08/03 07:39:12;;;;;;;6.20;0.90;;;17.80;99.90;;;;;;5015365;28;20026;-59
2023/08/03 07:41:38;;;;;;;4.00;0.60;;;17.90;99.90;;;;;;5012787;28;20037;-60
2023/08/03 07:44:04;;;;;;;3.53;0.50;;;17.90;99.90;;;;;;5018313;28;20036;-57
2023/08/03 07:46:30;;;;;;;1.90;0.63;;;18.00;99.90;;;;;;5015906;28;20037;-58
2023/08/03 07:48:57;;;;;;;5.80;0.70;;;18.10;99.90;;;;;;5013799;28;20037;-56
2023/08/03 07:51:23;;;;;;;3.42;0.60;;;18.10;99.90;;;;;;5016706;28;20029;-58
2023/08/03 07:53:49;;;;;;;0.93;0.50;;;18.10;99.90;;;;;;5014269;28;20400;-59
2023/08/03 07:56:19;;;;;;;3.55;0.88;;;18.20;99.90;;;;;;5015396;28;20060;-59
2023/08/03 07:58:46;;;;;;;2.05;0.50;;;18.20;99.90;;;;;;5016636;28;20109;-57
2023/08/03 08:01:12;;;;;;;1.25;0.47;;;18.30;99.90;;;;;;5013480;28;20037;-55
2023/08/03 08:03:39;;;;;;;2.08;0.47;;;18.30;99.90;;;;;;5016732;28;20079;-58
2023/08/03 08:06:10;;;;;;;1.90;0.60;;;18.40;99.90;;;;;;5013870;28;20033;-60
2023/08/03 08:08:37;;;;;;;0.85;0.40;;;18.50;99.90;;;;;;5017579;28;20057;-60
2023/08/03 08:11:03;;;;;;;3.03;0.40;;;18.60;99.90;;;;;;5016964;28;20069;-58
2023/08/03 08:13:29;;;;;;;1.45;0.40;;;18.70;99.90;;;;;;5018638;28;20072;-59
2023/08/03 08:16:06;;;;;;;2.50;0.50;;;18.70;99.90;;;;;;5014903;28;20053;-58
2023/08/03 08:18:33;;;;;;;2.70;0.50;;;18.80;99.90;;;;;;5014825;28;20030;-59
2023/08/03 08:21:00;;;;;;;1.50;0.52;;;18.70;99.90;;;;;;5016091;28;20041;-57
2023/08/03 08:23:27;;;;;;;4.28;0.70;;;18.80;99.90;;;;;;5017132;28;20473;-58
2023/08/03 08:25:52;;;;;;;0.90;0.50;;;18.60;99.90;;;;;;5013675;28;20025;-60
2023/08/03 08:28:19;;;;;;;5.03;1.17;;;18.60;99.90;;;;;;5015725;28;20036;-57
2023/08/03 08:30:45;;;;;;;3.28;0.80;;;18.60;99.90;;;;;;5015150;28;20406;-56
2023/08/03 08:33:11;;;;;;;1.17;0.40;;;18.70;99.90;;;;;;5017674;28;20037;-57
2023/08/03 08:35:37;;;;;;;2.90;0.50;;;18.80;99.90;;;;;;5016255;28;20109;-58
2023/08/03 08:38:05;;;;;;;2.47;0.57;;;18.90;99.90;;;;;;5014725;28;20438;-58
2023/08/03 08:40:34;;;;;;;4.00;0.40;;;19.00;99.90;;;;;;5015688;28;20040;-57
2023/08/03 08:43:00;;;;;;;2.85;0.70;;;18.90;99.90;;;;;;5016799;28;20045;-58
2023/08/03 08:45:26;;;;;;;1.60;0.35;;;18.90;99.90;;;;;;5017049;28;20430;-58
2023/08/03 08:47:51;;;;;;;1.48;0.40;;;18.80;99.90;;;;;;5018331;28;20462;-60
2023/08/03 08:50:17;;;;;;;1.80;0.70;;;18.90;99.90;;;;;;5018510;28;20072;-59
2023/08/03 08:52:44;;;;;;;5.15;0.80;;;19.00;99.90;;;;;;5017348;28;20017;-58
2023/08/03 08:55:14;;;;;;;6.63;0.55;;;18.90;99.90;;;;;;5019976;28;20030;-60
2023/08/03 08:57:40;;;;;;;0.95;0.40;;;18.80;99.90;;;;;;5019110;28;20122;-58
2023/08/03 09:00:07;;;;;;;1.17;0.35;;;18.90;99.90;;;;;;5021593;28;20022;-60
2023/08/03 09:02:34;;;;;;;3.17;0.30;;;18.90;99.90;;;;;;5020105;28;20042;-59
2023/08/03 09:05:18;;;;;;;5.97;0.57;;;19.00;99.90;;;;;;5020367;28;20577;-59
2023/08/03 09:07:45;;;;;;;2.00;0.65;;;19.20;99.90;;;;;;5018618;28;20028;-60
2023/08/03 09:10:11;;;;;;;2.75;0.63;;;19.20;99.90;;;;;;5017431;28;20121;-59
2023/08/03 09:12:39;;;;;;;0.45;0.28;;;19.30;99.90;;;;;;5016592;28;20474;-59
2023/08/03 09:15:05;;;;;;;2.80;0.95;;;19.50;99.90;;;;;;5018618;28;20026;-59
2023/08/03 09:17:31;;;;;;;1.02;0.45;;;19.70;99.90;;;;;;5016006;28;20056;-60
2023/08/03 09:19:57;;;;;;;1.60;0.50;;;19.70;99.90;;;;;;5023265;28;20457;-58
2023/08/03 09:22:25;;;;;;;2.00;0.50;;;19.70;99.90;;;;;;5003180;28;20065;-58
2023/08/03 09:25:06;;;;;;;1.60;0.40;;;19.60;99.90;;;;;;5017036;28;20508;-60
2023/08/03 09:27:32;;;;;;;0.95;0.40;;;19.60;99.90;;;;;;5020305;28;20076;-59
2023/08/03 09:30:02;;;;;;;1.52;0.47;;;19.50;99.90;;;;;;5017409;28;20029;-59
2023/08/03 09:32:34;;;;;;;1.60;0.50;;;19.50;99.90;;;;;;5019923;28;20041;-59
2023/08/03 09:35:14;;;;;;;0.60;0.35;;;19.50;99.90;;;;;;5018260;28;20228;-59
2023/08/03 09:37:40;;;;;;;2.77;0.50;;;19.50;99.90;;;;;;5021332;28;20385;-60
2023/08/03 09:40:07;;;;;;;5.68;0.50;;;19.40;99.90;;;;;;5019570;28;20108;-58
2023/08/03 09:42:32;;;;;;;2.53;0.50;;;19.30;99.90;;;;;;5018191;28;20033;-59
2023/08/03 09:45:02;;;;;;;1.30;0.40;;;19.20;99.90;;;;;;5019004;28;20098;-58
2023/08/03 09:47:30;;;;;;;1.77;0.30;;;19.10;99.90;;;;;;5019709;28;20033;-59
2023/08/03 09:49:56;;;;;;;0.65;0.28;;;18.90;99.90;;;;;;5019174;28;20036;-56
2023/08/03 09:52:26;;;;;;;2.90;0.30;;;18.90;99.90;;;;;;5008075;28;20036;-59
2023/08/03 09:55:07;;;;;;;0.88;0.22;;;19.00;99.90;;;;;;5018486;28;20389;-58
2023/08/03 09:57:40;;;;;;;4.07;0.40;;;19.10;99.90;;;;;;5015988;28;20033;-59
2023/08/03 10:00:06;;;;;;;0.80;0.40;;;19.20;99.90;;;;;;5026768;28;20025;-60
2023/08/03 10:02:48;;;;;;;0.93;0.40;;;19.30;99.90;;;;;;5018942;28;20034;-59
2023/08/03 10:05:18;;;;;;;0.77;0.50;;;19.40;99.90;;;;;;5025149;28;20026;-60
2023/08/03 10:08:13;;;;;;;1.05;0.20;;;19.40;99.90;;;;;;5022720;28;20030;-59
2023/08/03 10:10:48;;;;;;;1.70;0.40;;;19.50;99.90;;;;;;5012809;28;20120;-58
2023/08/03 10:13:14;;;;;;;1.67;0.77;;;19.60;99.90;;;;;;5018328;28;20076;-59
2023/08/03 10:15:41;;;;;;;0.30;0.30;;;19.50;99.90;;;;;;5018743;28;20121;-58
2023/08/03 10:18:06;;;;;;;0.57;0.30;;;19.40;99.90;;;;;;5014141;28;20018;-58
2023/08/03 10:20:34;;;;;;;1.00;0.40;;;19.40;99.90;;;;;;5014242;28;20543;-59
2023/08/03 10:23:15;;;;;;;0.55;0.40;;;19.40;99.90;;;;;;5016558;28;20030;-58
2023/08/03 10:26:00;;;;;;;1.05;0.40;;;19.30;99.90;;;;;;5020373;28;20093;-58
2023/08/03 10:28:38;;;;;;;1.40;0.52;;;19.10;99.90;;;;;;5018663;28;20036;-60
2023/08/03 10:31:14;;;;;;;1.52;0.40;;;19.00;99.90;;;;;;5015099;28;20026;-59
2023/08/03 10:33:49;;;;;;;0.82;0.40;;;19.20;99.90;;;;;;5015254;28;20041;-59
2023/08/03 10:36:30;;;;;;;1.58;0.30;;;19.30;99.90;;;;;;5016098;28;20026;-59
2023/08/03 10:39:04;;;;;;;1.10;0.30;;;19.50;99.90;;;;;;5020069;28;20025;-60
2023/08/03 10:41:36;;;;;;;1.85;0.35;;;19.60;99.90;;;;;;5020106;28;20496;-59
2023/08/03 10:44:14;;;;;;;0.40;0.40;;;19.60;99.90;;;;;;5024638;28;20034;-59
2023/08/03 10:46:50;;;;;;;5.45;1.13;;;19.70;99.90;;;;;;5016269;28;20076;-60
2023/08/03 10:49:19;;;;;;;2.28;0.40;;;19.70;99.90;;;;;;5016751;28;20444;-59
2023/08/03 10:51:45;;;;;;;2.10;0.40;;;19.70;99.90;;;;;;5016744;28;20436;-57
2023/08/03 10:54:11;;;;;;;1.95;0.30;;;19.70;99.90;;;;;;5015467;28;20108;-59
2023/08/03 10:56:37;;;;;;;0.65;0.30;;;19.70;99.90;;;;;;5018919;28;20033;-57
2023/08/03 10:59:04;;;;;;;0.93;0.40;;;19.70;99.90;;;;;;5021926;28;20049;-59
2023/08/03 11:01:30;;;;;;;0.50;0.28;;;19.90;99.90;;;;;;5017343;28;20061;-60
2023/08/03 11:03:55;;;;;;;1.13;0.50;;;19.90;99.90;;;;;;5017463;28;20022;-58
2023/08/03 11:06:24;;;;;;;3.42;0.43;;;19.90;99.90;;;;;;5018180;28;20032;-59
2023/08/03 11:08:50;;;;;;;0.82;0.47;;;20.00;99.90;;;;;;5016333;28;20037;-57
2023/08/03 11:11:21;;;;;;;2.25;1.08;;;20.20;99.90;;;;;;5016014;28;20157;-60
2023/08/03 11:13:48;;;;;;;2.53;0.30;;;20.30;99.90;;;;;;5016699;28;20118;-59
2023/08/03 11:16:18;;;;;;;1.63;0.40;;;20.10;99.90;;;;;;5015635;28;20030;-59
2023/08/03 11:18:48;;;;;;;0.88;0.40;;;20.00;99.90;;;;;;5017556;28;20073;-59
2023/08/03 11:21:14;;;;;;;1.52;0.60;;;20.10;99.90;;;;;;5012945;28;20095;-58
2023/08/03 11:23:40;;;;;;;1.95;0.50;;;20.20;99.90;;;;;;5018273;28;20038;-60
2023/08/03 11:26:09;;;;;;;1.75;0.38;;;20.20;99.90;;;;;;4996705;28;20113;-59
2023/08/03 11:28:45;;;;;;;4.07;0.40;;;20.20;99.90;;;;;;5018900;28;20121;-59
2023/08/03 11:31:18;;;;;;;1.85;0.38;;;20.20;99.90;;;;;;5017683;28;20037;-58
2023/08/03 11:33:54;;;;;;;0.98;0.32;;;20.30;99.90;;;;;;5015118;28;20033;-59
2023/08/03 11:36:21;;;;;;;0.93;0.40;;;20.50;99.90;;;;;;5017154;28;20036;-59
2023/08/03 11:38:48;;;;;;;1.50;0.40;;;20.70;99.90;;;;;;5016992;28;20034;-59
2023/08/03 11:41:32;;;;;;;0.20;0.20;;;20.80;99.90;;;;;;5017517;28;20039;-59
2023/08/03 11:43:58;;;;;;;1.13;0.40;;;20.90;99.90;;;;;;5015841;28;20026;-59
2023/08/03 11:46:28;;;;;;;0.88;0.30;;;20.80;99.90;;;;;;5014698;28;20499;-60
2023/08/03 11:48:58;;;;;;;1.45;0.50;;;20.70;99.90;;;;;;5015039;28;20022;-59
2023/08/03 11:51:36;;;;;;;0.50;0.30;;;20.40;99.90;;;;;;5016450;28;20499;-58
2023/08/03 11:54:06;;;;;;;0.98;0.40;;;20.20;99.90;;;;;;5016750;28;20106;-59
2023/08/03 11:56:36;;;;;;;1.70;0.30;;;20.20;99.90;;;;;;5014856;28;20034;-58
2023/08/03 11:59:09;;;;;;;2.20;0.30;;;20.20;99.90;;;;;;5019380;28;20293;-58
2023/08/03 12:01:46;;;;;;;7.43;0.50;;;20.10;99.90;;;;;;5017783;28;20038;-58
2023/08/03 12:04:12;;;;;;;0.95;0.20;;;19.90;99.90;;;;;;5015454;28;20060;-58
2023/08/03 12:06:52;;;;;;;1.58;0.28;;;19.70;99.90;;;;;;5019799;28;20022;-59
2023/08/03 12:09:24;;;;;;;1.50;0.52;;;19.60;99.90;;;;;;5017580;28;20030;-59
2023/08/03 12:11:50;;;;;;;1.38;0.40;;;19.60;99.90;;;;;;5016294;28;20121;-60
2023/08/03 12:14:17;;;;;;;2.15;0.40;;;19.90;99.90;;;;;;5015067;28;20426;-59
2023/08/03 12:16:43;;;;;;;1.52;0.40;;;20.10;99.90;;;;;;5016677;28;20579;-58
2023/08/03 12:19:09;;;;;;;0.50;0.45;;;20.50;99.90;;;;;;5016228;28;20511;-60
2023/08/03 12:21:38;;;;;;;0.20;0.20;;;20.70;99.90;;;;;;5014696;28;20026;-59
2023/08/03 12:24:05;;;;;;;2.05;0.95;;;20.90;99.90;;;;;;4997717;28;20374;-59
2023/08/03 12:26:31;;;;;;;2.92;0.30;;;21.00;99.90;;;;;;5001072;28;20029;-59
2023/08/03 12:28:57;;;;;;;1.30;0.40;;;21.00;99.90;;;;;;5004277;28;20024;-59
2023/08/03 12:31:23;;;;;;;3.00;0.60;;;20.90;99.90;;;;;;5014800;28;20030;-59
2023/08/03 12:33:49;;;;;;;1.40;0.30;;;20.70;99.90;;;;;;5015674;28;20143;-60
2023/08/03 12:36:15;;;;;;;0.55;0.30;;;20.70;99.90;;;;;;5015704;28;20486;-59
2023/08/03 12:38:41;;;;;;;3.60;0.40;;;20.80;99.90;;;;;;5015786;28;20132;-59
2023/08/03 12:41:06;;;;;;;2.53;0.30;;;21.10;99.90;;;;;;5013002;28;20479;-59
2023/08/03 12:43:32;;;;;;;1.20;0.40;;;21.40;99.90;;;;;;5014408;28;20504;-59
2023/08/03 12:45:58;;;;;;;1.85;0.30;;;21.70;99.90;;;;;;5013801;28;20030;-58